sensor_id;sensor_type;location;lat;lon;timestamp;temperature;humidity
11083;DHT22;5595;50.186;8.468;2023-01-23T00:01:02;1.30;99.90
11083;DHT22;5595;50.186;8.468;2023-01-23T00:03:32;1.20;99.90
11083;DHT22;5595;50.186;8.468;2023-01-23T00:06:00;1.20;99.90
11083;DHT22;5595;50.186;8.468;2023-01-23T00:08:28;1.30;99.90
11083;DHT22;5595;50.186;8.468;2023-01-23T00:10:56;1.30;99.90
11083;DHT22;5595;50.186;8.468;2023-01-23T00:13:23;1.30;99.90
11083;DHT22;5595;50.186;8.468;2023-01-23T00:15:50;1.30;99.90
11083;DHT22;5595;50.186;8.468;2023-01-23T00:18:17;1.30;99.90
11083;DHT22;5595;50.186;8.468;2023-01-23T00:20:44;1.40;99.90
11083;DHT22;5595;50.186;8.468;2023-01-23T00:23:11;1.30;99.90
11083;DHT22;5595;50.186;8.468;2023-01-23T00:25:38;1.40;99.90
11083;DHT22;5595;50.186;8.468;2023-01-23T00:28:06;1.30;99.90
11083;DHT22;5595;50.186;8.468;2023-01-23T00:30:33;1.30;99.90
11083;DHT22;5595;50.186;8.468;2023-01-23T00:33:00;1.30;99.90
11083;DHT22;5595;50.186;8.468;2023-01-23T00:35:27;1.30;99.90
11083;DHT22;5595;50.186;8.468;2023-01-23T00:37:54;1.40;99.90
11083;DHT22;5595;50.186;8.468;2023-01-23T00:40:25;1.30;99.90
11083;DHT22;5595;50.186;8.468;2023-01-23T00:42:52;1.40;99.90
11083;DHT22;5595;50.186;8.468;2023-01-23T00:45:20;1.30;99.90
11083;DHT22;5595;50.186;8.468;2023-01-23T00:47:47;1.30;99.90
11083;DHT22;5595;50.186;8.468;2023-01-23T00:50:14;1.30;99.90
11083;DHT22;5595;50.186;8.468;2023-01-23T00:52:41;1.30;99.90
11083;DHT22;5595;50.186;8.468;2023-01-23T00:55:09;1.30;99.90
11083;DHT22;5595;50.186;8.468;2023-01-23T00:57:36;1.30;99.90
11083;DHT22;5595;50.186;8.468;2023-01-23T01:00:03;1.50;99.90
11083;DHT22;5595;50.186;8.468;2023-01-23T01:02:32;1.30;99.90
11083;DHT22;5595;50.186;8.468;2023-01-23T01:04:59;1.40;99.90
11083;DHT22;5595;50.186;8.468;2023-01-23T01:07:26;1.30;99.90
11083;DHT22;5595;50.186;8.468;2023-01-23T01:09:53;1.40;99.90
11083;DHT22;5595;50.186;8.468;2023-01-23T01:12:20;1.40;99.90
11083;DHT22;5595;50.186;8.468;2023-01-23T01:14:47;1.40;99.90
11083;DHT22;5595;50.186;8.468;2023-01-23T01:17:14;1.40;99.90
11083;DHT22;5595;50.186;8.468;2023-01-23T01:19:42;1.40;99.90
11083;DHT22;5595;50.186;8.468;2023-01-23T01:22:14;1.40;99.90
11083;DHT22;5595;50.186;8.468;2023-01-23T01:24:41;1.20;99.90
11083;DHT22;5595;50.186;8.468;2023-01-23T01:27:08;1.30;99.90
11083;DHT22;5595;50.186;8.468;2023-01-23T01:29:35;1.30;99.90
11083;DHT22;5595;50.186;8.468;2023-01-23T01:32:02;1.20;99.90
11083;DHT22;5595;50.186;8.468;2023-01-23T01:34:29;1.20;99.90
11083;DHT22;5595;50.186;8.468;2023-01-23T01:36:57;1.10;99.90
11083;DHT22;5595;50.186;8.468;2023-01-23T01:39:24;1.00;99.90
11083;DHT22;5595;50.186;8.468;2023-01-23T01:41:53;0.90;99.90
11083;DHT22;5595;50.186;8.468;2023-01-23T01:44:22;0.90;99.90
11083;DHT22;5595;50.186;8.468;2023-01-23T01:46:49;0.80;99.90
11083;DHT22;5595;50.186;8.468;2023-01-23T01:49:20;0.80;99.90
11083;DHT22;5595;50.186;8.468;2023-01-23T01:51:52;0.80;99.90
11083;DHT22;5595;50.186;8.468;2023-01-23T01:54:26;0.70;99.90
11083;DHT22;5595;50.186;8.468;2023-01-23T01:56:57;0.70;99.90
11083;DHT22;5595;50.186;8.468;2023-01-23T01:59:28;0.70;99.90
11083;DHT22;5595;50.186;8.468;2023-01-23T02:02:01;0.60;99.90
11083;DHT22;5595;50.186;8.468;2023-01-23T02:04:30;0.60;99.90
11083;DHT22;5595;50.186;8.468;2023-01-23T02:06:59;0.60;99.90
11083;DHT22;5595;50.186;8.468;2023-01-23T02:09:30;0.60;99.90
11083;DHT22;5595;50.186;8.468;2023-01-23T02:11:58;0.70;99.90
11083;DHT22;5595;50.186;8.468;2023-01-23T02:14:25;0.70;99.90
11083;DHT22;5595;50.186;8.468;2023-01-23T02:16:53;0.80;99.90
11083;DHT22;5595;50.186;8.468;2023-01-23T02:19:33;0.80;99.90
11083;DHT22;5595;50.186;8.468;2023-01-23T02:22:10;0.80;99.90
11083;DHT22;5595;50.186;8.468;2023-01-23T02:24:44;0.80;99.90
11083;DHT22;5595;50.186;8.468;2023-01-23T02:27:15;0.70;99.90
11083;DHT22;5595;50.186;8.468;2023-01-23T02:29:44;0.60;99.90
11083;DHT22;5595;50.186;8.468;2023-01-23T02:32:13;0.70;99.90
11083;DHT22;5595;50.186;8.468;2023-01-23T02:34:41;0.70;99.90
11083;DHT22;5595;50.186;8.468;2023-01-23T02:37:08;0.60;99.90
11083;DHT22;5595;50.186;8.468;2023-01-23T02:39:35;0.60;99.90
11083;DHT22;5595;50.186;8.468;2023-01-23T02:42:04;0.70;99.90
11083;DHT22;5595;50.186;8.468;2023-01-23T02:44:33;0.60;99.90
11083;DHT22;5595;50.186;8.468;2023-01-23T02:47:03;0.80;99.90
11083;DHT22;5595;50.186;8.468;2023-01-23T02:49:32;0.80;99.90
11083;DHT22;5595;50.186;8.468;2023-01-23T02:51:59;0.80;99.90
11083;DHT22;5595;50.186;8.468;2023-01-23T02:54:26;0.80;99.90
11083;DHT22;5595;50.186;8.468;2023-01-23T02:56:54;0.90;99.90
11083;DHT22;5595;50.186;8.468;2023-01-23T02:59:22;0.90;99.90
11083;DHT22;5595;50.186;8.468;2023-01-23T03:02:08;1.00;99.90
11083;DHT22;5595;50.186;8.468;2023-01-23T03:04:35;1.00;99.90
11083;DHT22;5595;50.186;8.468;2023-01-23T03:07:02;1.00;99.90
11083;DHT22;5595;50.186;8.468;2023-01-23T03:09:29;1.10;99.90
11083;DHT22;5595;50.186;8.468;2023-01-23T03:11:56;1.10;99.90
11083;DHT22;5595;50.186;8.468;2023-01-23T03:14:24;1.00;99.90
11083;DHT22;5595;50.186;8.468;2023-01-23T03:16:51;1.10;99.90
11083;DHT22;5595;50.186;8.468;2023-01-23T03:19:21;1.10;99.90
11083;DHT22;5595;50.186;8.468;2023-01-23T03:21:49;1.00;99.90
11083;DHT22;5595;50.186;8.468;2023-01-23T03:24:17;1.10;99.90
11083;DHT22;5595;50.186;8.468;2023-01-23T03:26:46;0.90;99.90
11083;DHT22;5595;50.186;8.468;2023-01-23T03:29:15;0.80;99.90
11083;DHT22;5595;50.186;8.468;2023-01-23T03:32:00;0.80;99.90
11083;DHT22;5595;50.186;8.468;2023-01-23T03:34:29;0.80;99.90
11083;DHT22;5595;50.186;8.468;2023-01-23T03:36:56;0.70;99.90
11083;DHT22;5595;50.186;8.468;2023-01-23T03:39:24;0.90;99.90
11083;DHT22;5595;50.186;8.468;2023-01-23T03:42:08;0.80;99.90
11083;DHT22;5595;50.186;8.468;2023-01-23T03:44:35;0.90;99.90
11083;DHT22;5595;50.186;8.468;2023-01-23T03:47:02;0.90;99.90
11083;DHT22;5595;50.186;8.468;2023-01-23T03:49:31;1.00;99.90
11083;DHT22;5595;50.186;8.468;2023-01-23T03:51:58;1.00;99.90
11083;DHT22;5595;50.186;8.468;2023-01-23T03:54:25;1.10;99.90
11083;DHT22;5595;50.186;8.468;2023-01-23T03:56:53;1.10;99.90
11083;DHT22;5595;50.186;8.468;2023-01-23T03:59:20;1.10;99.90
11083;DHT22;5595;50.186;8.468;2023-01-23T04:01:47;1.10;99.90
11083;DHT22;5595;50.186;8.468;2023-01-23T04:04:14;1.10;99.90
11083;DHT22;5595;50.186;8.468;2023-01-23T04:06:42;1.10;99.90
11083;DHT22;5595;50.186;8.468;2023-01-23T04:09:09;1.20;99.90
11083;DHT22;5595;50.186;8.468;2023-01-23T04:11:38;1.20;99.90
11083;DHT22;5595;50.186;8.468;2023-01-23T04:14:05;1.30;99.90
11083;DHT22;5595;50.186;8.468;2023-01-23T04:16:32;1.10;99.90
11083;DHT22;5595;50.186;8.468;2023-01-23T04:18:59;1.20;99.90
11083;DHT22;5595;50.186;8.468;2023-01-23T04:21:26;1.20;99.90
11083;DHT22;5595;50.186;8.468;2023-01-23T04:23:54;1.20;99.90
11083;DHT22;5595;50.186;8.468;2023-01-23T04:26:21;1.20;99.90
11083;DHT22;5595;50.186;8.468;2023-01-23T04:28:48;1.10;99.90
11083;DHT22;5595;50.186;8.468;2023-01-23T04:31:15;1.30;99.90
11083;DHT22;5595;50.186;8.468;2023-01-23T04:33:42;1.20;99.90
11083;DHT22;5595;50.186;8.468;2023-01-23T04:36:10;1.20;99.90
11083;DHT22;5595;50.186;8.468;2023-01-23T04:38:37;1.30;99.90
11083;DHT22;5595;50.186;8.468;2023-01-23T04:41:05;1.30;99.90
11083;DHT22;5595;50.186;8.468;2023-01-23T04:43:32;1.30;99.90
11083;DHT22;5595;50.186;8.468;2023-01-23T04:46:00;1.30;99.90
11083;DHT22;5595;50.186;8.468;2023-01-23T04:48:29;1.30;99.90
11083;DHT22;5595;50.186;8.468;2023-01-23T04:50:56;1.30;99.90
11083;DHT22;5595;50.186;8.468;2023-01-23T04:53:23;1.40;99.90
11083;DHT22;5595;50.186;8.468;2023-01-23T04:55:50;1.30;99.90
11083;DHT22;5595;50.186;8.468;2023-01-23T04:58:18;1.60;99.90
11083;DHT22;5595;50.186;8.468;2023-01-23T05:00:46;1.40;99.90
11083;DHT22;5595;50.186;8.468;2023-01-23T05:03:13;1.30;99.90
11083;DHT22;5595;50.186;8.468;2023-01-23T05:05:40;1.40;99.90
11083;DHT22;5595;50.186;8.468;2023-01-23T05:08:09;1.30;99.90
11083;DHT22;5595;50.186;8.468;2023-01-23T05:10:36;1.30;99.90
11083;DHT22;5595;50.186;8.468;2023-01-23T05:13:03;1.30;99.90
11083;DHT22;5595;50.186;8.468;2023-01-23T05:15:31;1.20;99.90
11083;DHT22;5595;50.186;8.468;2023-01-23T05:17:58;1.30;99.90
11083;DHT22;5595;50.186;8.468;2023-01-23T05:20:27;1.30;99.90
11083;DHT22;5595;50.186;8.468;2023-01-23T05:22:53;1.40;99.90
11083;DHT22;5595;50.186;8.468;2023-01-23T05:25:22;1.40;99.90
11083;DHT22;5595;50.186;8.468;2023-01-23T05:27:49;1.40;99.90
11083;DHT22;5595;50.186;8.468;2023-01-23T05:30:17;1.40;99.90
11083;DHT22;5595;50.186;8.468;2023-01-23T05:32:47;1.50;99.90
11083;DHT22;5595;50.186;8.468;2023-01-23T05:35:14;1.40;99.90
11083;DHT22;5595;50.186;8.468;2023-01-23T05:37:41;1.40;99.90
11083;DHT22;5595;50.186;8.468;2023-01-23T05:40:12;1.60;99.90
11083;DHT22;5595;50.186;8.468;2023-01-23T05:42:39;1.40;99.90
11083;DHT22;5595;50.186;8.468;2023-01-23T05:45:06;1.50;99.90
11083;DHT22;5595;50.186;8.468;2023-01-23T05:47:33;1.40;99.90
11083;DHT22;5595;50.186;8.468;2023-01-23T05:50:02;1.40;99.90
11083;DHT22;5595;50.186;8.468;2023-01-23T05:52:29;1.50;99.90
11083;DHT22;5595;50.186;8.468;2023-01-23T05:54:56;1.40;99.90
11083;DHT22;5595;50.186;8.468;2023-01-23T05:57:22;1.40;99.90
11083;DHT22;5595;50.186;8.468;2023-01-23T05:59:49;1.40;99.90
11083;DHT22;5595;50.186;8.468;2023-01-23T06:02:19;1.40;99.90
11083;DHT22;5595;50.186;8.468;2023-01-23T06:04:46;1.40;99.90
11083;DHT22;5595;50.186;8.468;2023-01-23T06:07:16;1.30;99.90
11083;DHT22;5595;50.186;8.468;2023-01-23T06:09:44;1.30;99.90
11083;DHT22;5595;50.186;8.468;2023-01-23T06:12:11;1.20;99.90
11083;DHT22;5595;50.186;8.468;2023-01-23T06:14:38;1.30;99.90
11083;DHT22;5595;50.186;8.468;2023-01-23T06:17:05;1.30;99.90
11083;DHT22;5595;50.186;8.468;2023-01-23T06:19:33;1.40;99.90
11083;DHT22;5595;50.186;8.468;2023-01-23T06:22:00;1.30;99.90
11083;DHT22;5595;50.186;8.468;2023-01-23T06:24:28;1.50;99.90
11083;DHT22;5595;50.186;8.468;2023-01-23T06:26:55;1.40;99.90
11083;DHT22;5595;50.186;8.468;2023-01-23T06:29:22;1.50;99.90
11083;DHT22;5595;50.186;8.468;2023-01-23T06:31:49;1.50;99.90
11083;DHT22;5595;50.186;8.468;2023-01-23T06:34:17;1.50;99.90
11083;DHT22;5595;50.186;8.468;2023-01-23T06:36:43;1.50;99.90
11083;DHT22;5595;50.186;8.468;2023-01-23T06:39:13;1.50;99.90
11083;DHT22;5595;50.186;8.468;2023-01-23T06:41:45;1.60;99.90
11083;DHT22;5595;50.186;8.468;2023-01-23T06:44:12;1.40;99.90
11083;DHT22;5595;50.186;8.468;2023-01-23T06:46:39;1.40;99.90
11083;DHT22;5595;50.186;8.468;2023-01-23T06:49:11;1.40;99.90
11083;DHT22;5595;50.186;8.468;2023-01-23T06:51:41;1.50;99.90
11083;DHT22;5595;50.186;8.468;2023-01-23T06:54:08;1.50;99.90
11083;DHT22;5595;50.186;8.468;2023-01-23T06:56:35;1.70;99.90
11083;DHT22;5595;50.186;8.468;2023-01-23T06:59:03;1.50;99.90
11083;DHT22;5595;50.186;8.468;2023-01-23T07:01:30;1.50;99.90
11083;DHT22;5595;50.186;8.468;2023-01-23T07:03:57;1.40;99.90
11083;DHT22;5595;50.186;8.468;2023-01-23T07:06:24;1.50;99.90
11083;DHT22;5595;50.186;8.468;2023-01-23T07:08:50;1.30;99.90
11083;DHT22;5595;50.186;8.468;2023-01-23T07:11:17;1.30;99.90
11083;DHT22;5595;50.186;8.468;2023-01-23T07:13:44;1.40;99.90
11083;DHT22;5595;50.186;8.468;2023-01-23T07:16:12;1.30;99.90
11083;DHT22;5595;50.186;8.468;2023-01-23T07:18:39;1.30;99.90
11083;DHT22;5595;50.186;8.468;2023-01-23T07:21:06;1.40;99.90
11083;DHT22;5595;50.186;8.468;2023-01-23T07:23:34;1.40;99.90
11083;DHT22;5595;50.186;8.468;2023-01-23T07:26:02;1.40;99.90
11083;DHT22;5595;50.186;8.468;2023-01-23T07:28:35;1.40;99.90
11083;DHT22;5595;50.186;8.468;2023-01-23T07:31:03;1.50;99.90
11083;DHT22;5595;50.186;8.468;2023-01-23T07:33:31;1.50;99.90
11083;DHT22;5595;50.186;8.468;2023-01-23T07:35:58;1.50;99.90
11083;DHT22;5595;50.186;8.468;2023-01-23T07:38:27;1.50;99.90
11083;DHT22;5595;50.186;8.468;2023-01-23T07:40:57;1.50;99.90
11083;DHT22;5595;50.186;8.468;2023-01-23T07:43:25;1.40;99.90
11083;DHT22;5595;50.186;8.468;2023-01-23T07:45:52;1.40;99.90
11083;DHT22;5595;50.186;8.468;2023-01-23T07:48:19;1.40;99.90
11083;DHT22;5595;50.186;8.468;2023-01-23T07:50:47;1.40;99.90
11083;DHT22;5595;50.186;8.468;2023-01-23T07:53:14;1.40;99.90
11083;DHT22;5595;50.186;8.468;2023-01-23T07:55:40;1.40;99.90
11083;DHT22;5595;50.186;8.468;2023-01-23T07:58:07;1.40;99.90
11083;DHT22;5595;50.186;8.468;2023-01-23T08:00:34;1.20;99.90
11083;DHT22;5595;50.186;8.468;2023-01-23T08:03:01;1.40;99.90
11083;DHT22;5595;50.186;8.468;2023-01-23T08:05:28;1.50;99.90
11083;DHT22;5595;50.186;8.468;2023-01-23T08:07:56;1.50;99.90
11083;DHT22;5595;50.186;8.468;2023-01-23T08:10:23;1.50;99.90
11083;DHT22;5595;50.186;8.468;2023-01-23T08:12:50;1.70;99.90
11083;DHT22;5595;50.186;8.468;2023-01-23T08:15:20;1.60;99.90
11083;DHT22;5595;50.186;8.468;2023-01-23T08:17:49;1.60;99.90
11083;DHT22;5595;50.186;8.468;2023-01-23T08:20:16;1.70;99.90
11083;DHT22;5595;50.186;8.468;2023-01-23T08:22:47;1.70;99.90
11083;DHT22;5595;50.186;8.468;2023-01-23T08:25:16;1.70;99.90
11083;DHT22;5595;50.186;8.468;2023-01-23T08:27:43;1.70;99.90
11083;DHT22;5595;50.186;8.468;2023-01-23T08:30:10;1.70;99.90
11083;DHT22;5595;50.186;8.468;2023-01-23T08:32:40;1.90;99.90
11083;DHT22;5595;50.186;8.468;2023-01-23T08:35:08;1.80;99.90
11083;DHT22;5595;50.186;8.468;2023-01-23T08:37:35;1.90;99.90
11083;DHT22;5595;50.186;8.468;2023-01-23T08:40:02;1.90;99.90
11083;DHT22;5595;50.186;8.468;2023-01-23T08:42:33;1.80;99.90
11083;DHT22;5595;50.186;8.468;2023-01-23T08:45:04;1.90;99.90
11083;DHT22;5595;50.186;8.468;2023-01-23T08:47:31;1.90;99.90
11083;DHT22;5595;50.186;8.468;2023-01-23T08:50:01;2.00;99.90
11083;DHT22;5595;50.186;8.468;2023-01-23T08:52:28;2.10;99.90
11083;DHT22;5595;50.186;8.468;2023-01-23T08:54:58;2.10;99.90
11083;DHT22;5595;50.186;8.468;2023-01-23T08:57:28;2.10;99.90
11083;DHT22;5595;50.186;8.468;2023-01-23T08:59:57;2.20;99.90
11083;DHT22;5595;50.186;8.468;2023-01-23T09:02:23;1.80;99.90
11083;DHT22;5595;50.186;8.468;2023-01-23T09:04:51;2.00;99.90
11083;DHT22;5595;50.186;8.468;2023-01-23T09:07:18;2.10;99.90
11083;DHT22;5595;50.186;8.468;2023-01-23T09:09:45;2.20;99.90
11083;DHT22;5595;50.186;8.468;2023-01-23T09:12:12;2.20;99.90
11083;DHT22;5595;50.186;8.468;2023-01-23T09:14:40;2.30;99.90
11083;DHT22;5595;50.186;8.468;2023-01-23T09:17:08;2.20;99.90
11083;DHT22;5595;50.186;8.468;2023-01-23T09:19:35;2.20;99.90
11083;DHT22;5595;50.186;8.468;2023-01-23T09:22:02;2.20;99.90
11083;DHT22;5595;50.186;8.468;2023-01-23T09:24:29;2.30;99.90
11083;DHT22;5595;50.186;8.468;2023-01-23T09:27:00;2.30;99.90
11083;DHT22;5595;50.186;8.468;2023-01-23T09:29:27;2.30;99.90
11083;DHT22;5595;50.186;8.468;2023-01-23T09:31:54;2.40;99.90
11083;DHT22;5595;50.186;8.468;2023-01-23T09:34:24;2.40;99.90
11083;DHT22;5595;50.186;8.468;2023-01-23T09:36:51;2.30;99.90
11083;DHT22;5595;50.186;8.468;2023-01-23T09:39:21;2.30;99.90
11083;DHT22;5595;50.186;8.468;2023-01-23T09:41:51;2.50;99.90
11083;DHT22;5595;50.186;8.468;2023-01-23T09:44:21;2.50;99.90
11083;DHT22;5595;50.186;8.468;2023-01-23T09:46:53;2.50;99.90
11083;DHT22;5595;50.186;8.468;2023-01-23T09:49:27;2.60;99.90
11083;DHT22;5595;50.186;8.468;2023-01-23T09:51:59;2.60;99.90
11083;DHT22;5595;50.186;8.468;2023-01-23T09:54:38;2.70;99.90
11083;DHT22;5595;50.186;8.468;2023-01-23T09:57:13;2.70;99.90
11083;DHT22;5595;50.186;8.468;2023-01-23T09:59:45;2.80;99.90
11083;DHT22;5595;50.186;8.468;2023-01-23T10:02:19;2.80;99.90
11083;DHT22;5595;50.186;8.468;2023-01-23T10:04:50;2.80;99.90
11083;DHT22;5595;50.186;8.468;2023-01-23T10:07:31;2.80;99.90
11083;DHT22;5595;50.186;8.468;2023-01-23T10:10:17;2.90;99.90
11083;DHT22;5595;50.186;8.468;2023-01-23T10:12:55;2.90;99.90
11083;DHT22;5595;50.186;8.468;2023-01-23T10:15:32;2.90;99.90
11083;DHT22;5595;50.186;8.468;2023-01-23T10:18:09;3.10;99.90
11083;DHT22;5595;50.186;8.468;2023-01-23T10:20:50;3.20;99.90
11083;DHT22;5595;50.186;8.468;2023-01-23T10:23:38;3.30;99.90
11083;DHT22;5595;50.186;8.468;2023-01-23T10:26:14;3.20;99.90
11083;DHT22;5595;50.186;8.468;2023-01-23T10:28:43;3.00;99.90
11083;DHT22;5595;50.186;8.468;2023-01-23T10:31:15;2.80;99.90
11083;DHT22;5595;50.186;8.468;2023-01-23T10:33:49;2.60;99.90
11083;DHT22;5595;50.186;8.468;2023-01-23T10:36:26;2.40;99.90
11083;DHT22;5595;50.186;8.468;2023-01-23T10:38:59;2.50;99.90
11083;DHT22;5595;50.186;8.468;2023-01-23T10:41:28;2.50;99.90
11083;DHT22;5595;50.186;8.468;2023-01-23T10:43:56;2.50;99.90
11083;DHT22;5595;50.186;8.468;2023-01-23T10:46:30;2.70;99.90
11083;DHT22;5595;50.186;8.468;2023-01-23T10:49:00;2.80;99.90
11083;DHT22;5595;50.186;8.468;2023-01-23T10:51:43;3.00;99.90
11083;DHT22;5595;50.186;8.468;2023-01-23T10:54:14;3.10;99.90
11083;DHT22;5595;50.186;8.468;2023-01-23T10:56:54;3.20;99.90
11083;DHT22;5595;50.186;8.468;2023-01-23T10:59:29;3.40;99.90
11083;DHT22;5595;50.186;8.468;2023-01-23T11:02:14;3.40;99.90
11083;DHT22;5595;50.186;8.468;2023-01-23T11:04:44;3.50;99.90
11083;DHT22;5595;50.186;8.468;2023-01-23T11:07:15;3.60;99.90
11083;DHT22;5595;50.186;8.468;2023-01-23T11:09:48;3.70;99.90
11083;DHT22;5595;50.186;8.468;2023-01-23T11:12:19;3.70;99.90
11083;DHT22;5595;50.186;8.468;2023-01-23T11:14:48;3.80;99.90
11083;DHT22;5595;50.186;8.468;2023-01-23T11:17:19;3.80;99.90
11083;DHT22;5595;50.186;8.468;2023-01-23T11:19:48;3.90;99.90
11083;DHT22;5595;50.186;8.468;2023-01-23T11:22:32;4.00;99.90
11083;DHT22;5595;50.186;8.468;2023-01-23T11:24:59;3.90;99.90
11083;DHT22;5595;50.186;8.468;2023-01-23T11:27:29;3.90;99.90
11083;DHT22;5595;50.186;8.468;2023-01-23T11:30:26;3.90;99.90
11083;DHT22;5595;50.186;8.468;2023-01-23T11:32:58;3.80;99.90
11083;DHT22;5595;50.186;8.468;2023-01-23T11:35:41;3.80;99.90
11083;DHT22;5595;50.186;8.468;2023-01-23T11:38:16;3.90;99.90
11083;DHT22;5595;50.186;8.468;2023-01-23T11:40:44;3.90;99.90
11083;DHT22;5595;50.186;8.468;2023-01-23T11:43:13;3.70;99.90
11083;DHT22;5595;50.186;8.468;2023-01-23T11:45:53;3.80;99.90
11083;DHT22;5595;50.186;8.468;2023-01-23T11:48:35;3.80;99.90
11083;DHT22;5595;50.186;8.468;2023-01-23T11:51:11;3.70;99.90
11083;DHT22;5595;50.186;8.468;2023-01-23T11:53:45;3.60;99.90
11083;DHT22;5595;50.186;8.468;2023-01-23T11:56:55;3.50;99.90
11083;DHT22;5595;50.186;8.468;2023-01-23T11:59:44;3.50;99.90
11083;DHT22;5595;50.186;8.468;2023-01-23T12:08:44;3.40;99.90
11083;DHT22;5595;50.186;8.468;2023-01-23T12:11:14;3.40;99.90
11083;DHT22;5595;50.186;8.468;2023-01-23T12:14:06;3.50;99.90
11083;DHT22;5595;50.186;8.468;2023-01-23T12:16:54;3.50;99.90
11083;DHT22;5595;50.186;8.468;2023-01-23T12:19:33;3.60;99.90
11083;DHT22;5595;50.186;8.468;2023-01-23T12:22:09;3.70;99.90
11083;DHT22;5595;50.186;8.468;2023-01-23T12:25:18;3.60;99.90
11083;DHT22;5595;50.186;8.468;2023-01-23T12:27:39;3.70;99.90
11083;DHT22;5595;50.186;8.468;2023-01-23T12:33:10;3.60;99.90
11083;DHT22;5595;50.186;8.468;2023-01-23T12:35:47;3.70;99.90
11083;DHT22;5595;50.186;8.468;2023-01-23T12:38:23;3.80;99.90
11083;DHT22;5595;50.186;8.468;2023-01-23T12:41:12;3.80;99.90
11083;DHT22;5595;50.186;8.468;2023-01-23T12:43:46;3.70;99.90
11083;DHT22;5595;50.186;8.468;2023-01-23T12:46:21;3.70;99.90
11083;DHT22;5595;50.186;8.468;2023-01-23T12:48:51;3.70;99.90
11083;DHT22;5595;50.186;8.468;2023-01-23T12:51:22;3.80;99.90
11083;DHT22;5595;50.186;8.468;2023-01-23T12:53:52;3.90;99.90
11083;DHT22;5595;50.186;8.468;2023-01-23T12:56:27;3.90;99.90
11083;DHT22;5595;50.186;8.468;2023-01-23T12:59:03;4.00;99.90
11083;DHT22;5595;50.186;8.468;2023-01-23T13:01:57;4.00;99.90
11083;DHT22;5595;50.186;8.468;2023-01-23T13:04:42;4.00;99.90
11083;DHT22;5595;50.186;8.468;2023-01-23T13:07:26;3.90;99.90
11083;DHT22;5595;50.186;8.468;2023-01-23T13:10:30;3.90;99.90
11083;DHT22;5595;50.186;8.468;2023-01-23T13:13:12;3.80;99.90
11083;DHT22;5595;50.186;8.468;2023-01-23T13:15:40;3.90;99.90
11083;DHT22;5595;50.186;8.468;2023-01-23T13:18:22;3.90;99.90
11083;DHT22;5595;50.186;8.468;2023-01-23T13:20:56;3.80;99.90
11083;DHT22;5595;50.186;8.468;2023-01-23T13:23:41;3.90;99.90
11083;DHT22;5595;50.186;8.468;2023-01-23T13:26:23;4.00;99.90
11083;DHT22;5595;50.186;8.468;2023-01-23T13:28:59;4.00;99.90
11083;DHT22;5595;50.186;8.468;2023-01-23T13:31:38;4.00;99.90
11083;DHT22;5595;50.186;8.468;2023-01-23T13:34:33;4.10;99.90
11083;DHT22;5595;50.186;8.468;2023-01-23T13:40:18;4.00;99.90
11083;DHT22;5595;50.186;8.468;2023-01-23T13:42:46;4.00;99.90
11083;DHT22;5595;50.186;8.468;2023-01-23T13:45:27;4.00;99.90
11083;DHT22;5595;50.186;8.468;2023-01-23T13:51:14;4.00;99.90
11083;DHT22;5595;50.186;8.468;2023-01-23T13:53:44;4.10;99.90
11083;DHT22;5595;50.186;8.468;2023-01-23T13:56:30;4.10;99.90
11083;DHT22;5595;50.186;8.468;2023-01-23T13:59:24;4.10;99.90
11083;DHT22;5595;50.186;8.468;2023-01-23T14:01:57;4.10;99.90
11083;DHT22;5595;50.186;8.468;2023-01-23T14:04:55;4.00;99.90
11083;DHT22;5595;50.186;8.468;2023-01-23T14:07:39;4.10;99.90
11083;DHT22;5595;50.186;8.468;2023-01-23T14:10:32;4.00;99.90
11083;DHT22;5595;50.186;8.468;2023-01-23T14:13:06;4.00;99.90
11083;DHT22;5595;50.186;8.468;2023-01-23T14:15:36;4.00;99.90
11083;DHT22;5595;50.186;8.468;2023-01-23T14:18:30;4.00;99.90
11083;DHT22;5595;50.186;8.468;2023-01-23T14:21:01;3.90;99.90
11083;DHT22;5595;50.186;8.468;2023-01-23T14:23:33;3.90;99.90
11083;DHT22;5595;50.186;8.468;2023-01-23T14:26:02;4.00;99.90
11083;DHT22;5595;50.186;8.468;2023-01-23T14:28:29;3.90;99.90
11083;DHT22;5595;50.186;8.468;2023-01-23T14:30:59;3.90;99.90
11083;DHT22;5595;50.186;8.468;2023-01-23T14:33:36;3.90;99.90
11083;DHT22;5595;50.186;8.468;2023-01-23T14:36:05;3.80;99.90
11083;DHT22;5595;50.186;8.468;2023-01-23T14:38:33;3.70;99.90
11083;DHT22;5595;50.186;8.468;2023-01-23T14:41:06;3.70;99.90
11083;DHT22;5595;50.186;8.468;2023-01-23T14:43:34;3.70;99.90
11083;DHT22;5595;50.186;8.468;2023-01-23T14:46:05;3.60;99.90
11083;DHT22;5595;50.186;8.468;2023-01-23T14:48:39;3.60;99.90
11083;DHT22;5595;50.186;8.468;2023-01-23T14:51:13;3.60;99.90
11083;DHT22;5595;50.186;8.468;2023-01-23T14:53:42;3.60;99.90
11083;DHT22;5595;50.186;8.468;2023-01-23T14:56:10;3.60;99.90
11083;DHT22;5595;50.186;8.468;2023-01-23T14:58:38;3.40;99.90
11083;DHT22;5595;50.186;8.468;2023-01-23T15:01:09;3.40;99.90
11083;DHT22;5595;50.186;8.468;2023-01-23T15:03:40;3.40;99.90
11083;DHT22;5595;50.186;8.468;2023-01-23T15:06:12;3.30;99.90
11083;DHT22;5595;50.186;8.468;2023-01-23T15:08:40;3.20;99.90
11083;DHT22;5595;50.186;8.468;2023-01-23T15:11:08;3.20;99.90
11083;DHT22;5595;50.186;8.468;2023-01-23T15:13:46;3.10;99.90
11083;DHT22;5595;50.186;8.468;2023-01-23T15:16:21;3.10;99.90
11083;DHT22;5595;50.186;8.468;2023-01-23T15:18:54;3.00;99.90
11083;DHT22;5595;50.186;8.468;2023-01-23T15:21:32;3.10;99.90
11083;DHT22;5595;50.186;8.468;2023-01-23T15:24:05;2.80;99.90
11083;DHT22;5595;50.186;8.468;2023-01-23T15:26:34;2.80;99.90
11083;DHT22;5595;50.186;8.468;2023-01-23T15:29:03;2.60;99.90
11083;DHT22;5595;50.186;8.468;2023-01-23T15:31:45;2.60;99.90
11083;DHT22;5595;50.186;8.468;2023-01-23T15:34:21;2.50;99.90
11083;DHT22;5595;50.186;8.468;2023-01-23T15:36:52;2.40;99.90
11083;DHT22;5595;50.186;8.468;2023-01-23T15:39:23;2.30;99.90
11083;DHT22;5595;50.186;8.468;2023-01-23T15:41:54;2.20;99.90
11083;DHT22;5595;50.186;8.468;2023-01-23T15:44:26;2.20;99.90
11083;DHT22;5595;50.186;8.468;2023-01-23T15:46:55;2.10;99.90
11083;DHT22;5595;50.186;8.468;2023-01-23T15:49:27;2.00;99.90
11083;DHT22;5595;50.186;8.468;2023-01-23T15:51:58;2.00;99.90
11083;DHT22;5595;50.186;8.468;2023-01-23T15:54:31;1.90;99.90
11083;DHT22;5595;50.186;8.468;2023-01-23T15:57:01;1.90;99.90
11083;DHT22;5595;50.186;8.468;2023-01-23T15:59:32;1.80;99.90
11083;DHT22;5595;50.186;8.468;2023-01-23T16:01:59;1.90;99.90
11083;DHT22;5595;50.186;8.468;2023-01-23T16:04:32;1.70;99.90
11083;DHT22;5595;50.186;8.468;2023-01-23T16:07:03;1.80;99.90
11083;DHT22;5595;50.186;8.468;2023-01-23T16:09:33;1.60;99.90
11083;DHT22;5595;50.186;8.468;2023-01-23T16:12:02;1.60;99.90
11083;DHT22;5595;50.186;8.468;2023-01-23T16:14:29;1.70;99.90
11083;DHT22;5595;50.186;8.468;2023-01-23T16:16:56;1.60;99.90
11083;DHT22;5595;50.186;8.468;2023-01-23T16:19:26;1.50;99.90
11083;DHT22;5595;50.186;8.468;2023-01-23T16:21:53;1.50;99.90
11083;DHT22;5595;50.186;8.468;2023-01-23T16:24:24;1.50;99.90
11083;DHT22;5595;50.186;8.468;2023-01-23T16:26:51;1.50;99.90
11083;DHT22;5595;50.186;8.468;2023-01-23T16:29:25;1.50;99.90
11083;DHT22;5595;50.186;8.468;2023-01-23T16:31:53;1.40;99.90
11083;DHT22;5595;50.186;8.468;2023-01-23T16:34:20;1.40;99.90
11083;DHT22;5595;50.186;8.468;2023-01-23T16:36:51;1.50;99.90
11083;DHT22;5595;50.186;8.468;2023-01-23T16:39:20;1.70;99.90
11083;DHT22;5595;50.186;8.468;2023-01-23T16:41:48;1.60;99.90